Main page
METAR-TAF:

METAR-TAF

Airports :

Angads Airport

Oujda, Morocco

latitude: 34-47N, longitude: 001-56W, elevation: 468 m

Current weather observation

The report was made 35 minutes ago, at 06:00 UTC
Wind 2 kt from variable directions
Temperature 14°C
Humidity 51%
Pressure 1010 hPa
Visibility 10 km or more
Scattered clouds at a height of 8300 ft
Scattered clouds at a height of 16000 ft

METAR: GMFO 080600Z VRB02KT 9999 SCT083 SCT160 14/04 Q1010 NOSIG

Time: 07:35 (06:35 UTC)

Forecast

The report was made 1 hour and 35 minutes ago, at 05:00 UTC
Forecast valid from 08 at 06 UTC to 09 at 12 UTC
Wind 8 kt from the South/Southwest
Visibility 10 km or more
no clouds below 1500 m and no cumulonimbus
Probability 40% :
Temporary
from 08 at 12 UTC to 08 at 20 UTC
Wind 12 kt from the North/Northwest
Visibility: 4000 m
Few clouds at a height of 3300 ft, Towering cumulus.
light rain

TAF: GMFO 080500Z 0806/0912 20008KT CAVOK PROB40 TEMPO 0812/0820 33012KT 4000 -RA FEW033TCU

Weather observations and forecasts of more than 4000 airports (METAR and TAF reports).

The available stations are represented by yellow and red dots on the map.

Hover mouse over dot to see the name of the station.

Then click to see weather observations and forecasts.

To change the map : click on the green buttons with a black cross to zoom in, on the green button with a dash to zoom out, or on the green arrows for adjacent maps.


METAR-TAF: